createdAt,value
2017-07-14T00:02:19.690Z,11.60
2017-07-14T00:04:46.630Z,11.80
2017-07-14T00:07:13.581Z,11.80
2017-07-14T00:09:40.516Z,11.70
2017-07-14T00:12:07.494Z,11.50
2017-07-14T00:14:34.432Z,11.40
2017-07-14T00:17:01.394Z,11.40
2017-07-14T00:19:28.394Z,11.40
2017-07-14T00:21:55.345Z,11.50
2017-07-14T00:24:22.280Z,11.40
2017-07-14T00:26:49.218Z,11.30
2017-07-14T00:29:16.151Z,11.30
2017-07-14T00:31:43.133Z,11.20
2017-07-14T00:34:10.072Z,11.20
2017-07-14T00:36:37.049Z,11.30
2017-07-14T00:39:04.987Z,11.20
2017-07-14T00:41:31.911Z,11.10
2017-07-14T00:43:58.886Z,11.10
2017-07-14T00:46:25.812Z,11.10
2017-07-14T00:48:52.787Z,11.20
2017-07-14T00:51:19.717Z,11.30
2017-07-14T00:53:46.697Z,11.30
2017-07-14T00:56:14.400Z,11.20
2017-07-14T00:58:41.341Z,11.20
2017-07-14T01:01:08.281Z,11.10
2017-07-14T01:03:35.246Z,11.30
2017-07-14T01:06:02.205Z,11.30
2017-07-14T01:08:29.137Z,11.50
2017-07-14T01:10:56.079Z,11.40
2017-07-14T01:13:22.994Z,11.20
2017-07-14T01:15:50.711Z,11.50
2017-07-14T01:18:17.641Z,11.40
2017-07-14T01:20:44.621Z,11.50
2017-07-14T01:23:11.554Z,11.60
2017-07-14T01:25:38.515Z,11.60
2017-07-14T01:28:06.230Z,11.50
2017-07-14T01:30:33.181Z,11.50
2017-07-14T01:33:00.113Z,11.30
2017-07-14T01:35:27.069Z,11.20
2017-07-14T01:37:54.008Z,11.30
2017-07-14T01:40:20.966Z,11.50
2017-07-14T01:42:47.977Z,11.70
2017-07-14T01:45:14.957Z,11.50
2017-07-14T01:47:41.909Z,11.50
2017-07-14T01:50:08.885Z,11.50
2017-07-14T01:52:36.594Z,11.60
2017-07-14T01:55:03.572Z,11.50
2017-07-14T01:57:30.575Z,11.50
2017-07-14T01:59:57.516Z,11.50
2017-07-14T02:02:25.397Z,11.50
2017-07-14T02:04:52.336Z,11.40
2017-07-14T02:07:19.308Z,11.30
2017-07-14T02:09:46.243Z,11.30
2017-07-14T02:12:13.196Z,11.30
2017-07-14T02:14:40.141Z,11.30
2017-07-14T02:17:08.084Z,11.20
2017-07-14T02:19:35.027Z,11.30
2017-07-14T02:22:02.174Z,11.10
2017-07-14T02:24:29.125Z,11.10
2017-07-14T02:26:56.069Z,11.40
2017-07-14T02:29:23.022Z,11.40
2017-07-14T02:31:49.981Z,11.30
2017-07-14T02:34:16.917Z,11.30
2017-07-14T02:36:43.868Z,11.10
2017-07-14T02:39:10.804Z,11.10
2017-07-14T02:41:37.791Z,11.10
2017-07-14T02:44:06.557Z,11.20
2017-07-14T02:46:33.524Z,11.20
2017-07-14T02:49:01.232Z,11.10
2017-07-14T02:51:28.193Z,11.10
2017-07-14T02:53:55.148Z,11.00
2017-07-14T02:56:22.136Z,11.40
2017-07-14T02:58:49.841Z,11.00
2017-07-14T03:01:16.817Z,11.00
2017-07-14T03:03:43.757Z,11.00
2017-07-14T03:06:11.646Z,10.90
2017-07-14T03:08:39.353Z,11.10
2017-07-14T03:11:06.320Z,11.10
2017-07-14T03:13:33.256Z,10.90
2017-07-14T03:16:00.246Z,10.80
2017-07-14T03:18:27.968Z,10.80
2017-07-14T03:20:54.920Z,10.80
2017-07-14T03:23:21.859Z,10.90
2017-07-14T03:25:48.837Z,10.80
2017-07-14T03:28:15.791Z,10.90
2017-07-14T03:30:43.513Z,10.90
2017-07-14T03:33:10.444Z,10.90
2017-07-14T03:35:37.411Z,10.90
2017-07-14T03:38:04.347Z,11.10
2017-07-14T03:40:31.288Z,11.00
2017-07-14T03:42:59.266Z,10.90
2017-07-14T03:45:26.217Z,10.80
2017-07-14T03:47:53.169Z,10.90
2017-07-14T03:50:20.109Z,11.00
2017-07-14T03:52:47.066Z,11.10
2017-07-14T03:55:14.023Z,11.20
2017-07-14T03:57:41.730Z,11.30
2017-07-14T04:00:08.662Z,11.30
2017-07-14T04:02:35.624Z,11.20
2017-07-14T04:05:02.551Z,11.10
2017-07-14T04:07:29.497Z,11.20
2017-07-14T04:09:56.432Z,11.20
2017-07-14T04:12:23.358Z,11.40
2017-07-14T04:14:51.085Z,11.30
2017-07-14T04:17:18.014Z,11.30
2017-07-14T04:19:44.965Z,11.40
2017-07-14T04:22:11.908Z,11.40
2017-07-14T04:24:38.860Z,11.60
2017-07-14T04:27:05.797Z,11.60
2017-07-14T04:29:32.748Z,11.70
2017-07-14T04:31:59.675Z,11.80
2017-07-14T04:34:27.408Z,11.60
2017-07-14T04:36:54.356Z,11.50
2017-07-14T04:39:21.313Z,11.50
2017-07-14T04:41:49.007Z,11.30
2017-07-14T04:44:15.985Z,11.30
2017-07-14T04:46:42.908Z,11.40
2017-07-14T04:49:09.881Z,11.50
2017-07-14T04:51:36.845Z,11.50
2017-07-14T04:54:03.784Z,11.50
2017-07-14T04:56:30.740Z,11.70
2017-07-14T04:58:58.430Z,11.60
2017-07-14T05:01:25.382Z,11.60
2017-07-14T05:03:52.303Z,11.80
2017-07-14T05:06:20.026Z,12.00
2017-07-14T05:08:46.962Z,11.90
2017-07-14T05:11:13.912Z,11.90
2017-07-14T05:13:40.848Z,11.80
2017-07-14T05:16:07.801Z,12.00
2017-07-14T05:18:34.739Z,12.00
2017-07-14T05:21:01.724Z,12.20
2017-07-14T05:23:29.439Z,12.50
2017-07-14T05:25:56.382Z,12.50
2017-07-14T05:28:23.305Z,12.50
2017-07-14T05:30:50.260Z,12.70
2017-07-14T05:33:17.258Z,12.90
2017-07-14T05:35:44.237Z,13.00
2017-07-14T05:38:11.199Z,13.10
2017-07-14T05:40:38.161Z,13.10
2017-07-14T05:43:05.094Z,13.20
2017-07-14T05:45:32.056Z,13.30
2017-07-14T05:47:59.009Z,13.30
2017-07-14T05:50:25.945Z,13.40
2017-07-14T05:52:52.902Z,13.40
2017-07-14T05:55:19.838Z,13.30
2017-07-14T05:57:46.789Z,13.40
2017-07-14T06:00:13.724Z,13.40
2017-07-14T06:02:40.669Z,13.30
2017-07-14T06:05:07.601Z,13.50
2017-07-14T06:07:34.572Z,13.80
2017-07-14T06:10:01.705Z,14.00
2017-07-14T06:12:28.646Z,14.10
2017-07-14T06:14:55.585Z,14.30
2017-07-14T06:17:22.553Z,14.60
2017-07-14T06:19:49.489Z,14.60
2017-07-14T06:22:16.447Z,14.30
2017-07-14T06:24:43.394Z,14.50
2017-07-14T06:27:10.322Z,14.70
2017-07-14T06:29:38.407Z,14.70
2017-07-14T06:32:05.337Z,14.80
2017-07-14T06:34:32.256Z,15.40
2017-07-14T06:36:59.214Z,15.10
2017-07-14T06:39:27.019Z,15.00
2017-07-14T06:41:53.954Z,15.00
2017-07-14T06:44:20.910Z,15.10
2017-07-14T06:46:47.826Z,15.10
2017-07-14T06:49:15.761Z,15.30
2017-07-14T06:51:42.714Z,15.40
2017-07-14T06:54:09.706Z,15.50
2017-07-14T06:56:36.658Z,15.50
2017-07-14T06:59:04.357Z,15.70
2017-07-14T07:01:31.317Z,15.70
2017-07-14T07:03:58.248Z,15.60
2017-07-14T07:06:25.218Z,15.50
2017-07-14T07:08:52.164Z,15.30
2017-07-14T07:11:19.097Z,15.40
2017-07-14T07:13:46.064Z,15.60
2017-07-14T07:16:13.046Z,15.80
2017-07-14T07:18:39.978Z,15.80
2017-07-14T07:21:06.925Z,15.70
2017-07-14T07:23:33.886Z,15.70
2017-07-14T07:26:00.851Z,15.70
2017-07-14T07:28:27.785Z,15.90
2017-07-14T07:30:54.725Z,16.00
2017-07-14T07:33:21.701Z,15.90
2017-07-14T07:35:49.401Z,16.00
2017-07-14T07:38:16.332Z,16.00
2017-07-14T07:40:43.290Z,16.30
2017-07-14T07:43:10.335Z,16.30
2017-07-14T07:45:37.265Z,16.40
2017-07-14T07:48:05.174Z,16.10
2017-07-14T07:50:32.113Z,16.10
2017-07-14T07:52:59.089Z,16.20
2017-07-14T07:55:27.796Z,16.20
2017-07-14T07:57:54.737Z,16.20
2017-07-14T08:00:21.709Z,16.20
2017-07-14T08:02:48.683Z,16.50
2017-07-14T08:05:15.622Z,16.70
2017-07-14T08:07:42.556Z,16.90
2017-07-14T08:10:09.490Z,16.90
2017-07-14T08:12:36.423Z,17.10
2017-07-14T08:15:03.405Z,17.00
2017-07-14T08:17:30.346Z,17.20
2017-07-14T08:19:57.280Z,17.30
2017-07-14T08:22:24.229Z,17.20
2017-07-14T08:24:51.157Z,17.30
2017-07-14T08:27:20.039Z,17.50
2017-07-14T08:29:46.972Z,17.40
2017-07-14T08:32:13.947Z,17.40
2017-07-14T08:34:40.888Z,17.40
2017-07-14T08:37:07.829Z,17.50
2017-07-14T08:39:34.816Z,17.90
2017-07-14T08:42:01.756Z,18.00
2017-07-14T08:44:29.697Z,18.20
2017-07-14T08:46:56.637Z,18.20
2017-07-14T08:49:23.622Z,18.20
2017-07-14T08:51:50.740Z,18.20
2017-07-14T08:54:17.696Z,18.20
2017-07-14T08:56:44.626Z,18.40
2017-07-14T08:59:13.532Z,18.40
2017-07-14T09:01:40.510Z,18.40
2017-07-14T09:04:08.216Z,18.40
2017-07-14T09:06:35.154Z,18.40
2017-07-14T09:09:02.137Z,18.50
2017-07-14T09:11:29.077Z,18.40
2017-07-14T09:13:56.051Z,18.40
2017-07-14T09:16:23.774Z,18.70
2017-07-14T09:18:50.751Z,18.70
2017-07-14T09:21:19.357Z,18.80
2017-07-14T09:23:46.353Z,18.70
2017-07-14T09:26:13.290Z,18.90
2017-07-14T09:28:40.268Z,19.00
2017-07-14T09:31:07.265Z,19.00
2017-07-14T09:33:35.105Z,19.00
2017-07-14T09:36:05.470Z,19.00
2017-07-14T09:38:32.409Z,19.00
2017-07-14T09:40:59.377Z,19.00
2017-07-14T09:43:27.227Z,19.10
2017-07-14T09:45:54.166Z,19.20
2017-07-14T09:48:24.103Z,19.20
2017-07-14T09:50:51.044Z,19.20
2017-07-14T09:53:18.991Z,19.30
2017-07-14T09:55:45.913Z,19.20
2017-07-14T09:58:12.859Z,19.00
2017-07-14T10:00:41.778Z,19.00
2017-07-14T10:03:10.641Z,19.30
2017-07-14T10:05:38.569Z,19.30
2017-07-14T10:08:06.297Z,19.60
2017-07-14T10:10:34.156Z,19.60
2017-07-14T10:13:03.056Z,19.50
2017-07-14T10:15:30.024Z,19.50
2017-07-14T10:17:56.993Z,19.60
2017-07-14T10:20:24.694Z,19.50
2017-07-14T10:22:51.651Z,19.50
2017-07-14T10:25:18.617Z,19.50
2017-07-14T10:27:46.536Z,19.60
2017-07-14T10:30:16.930Z,19.80
2017-07-14T10:32:44.657Z,19.60
2017-07-14T10:35:11.628Z,19.60
2017-07-14T10:37:39.497Z,19.80
2017-07-14T10:40:06.538Z,20.00
2017-07-14T10:42:33.481Z,19.90
2017-07-14T10:45:00.422Z,20.00
2017-07-14T10:47:27.381Z,20.40
2017-07-14T10:49:54.321Z,20.90
2017-07-14T10:52:21.295Z,20.90
2017-07-14T10:54:48.232Z,21.00
2017-07-14T10:57:15.157Z,20.70
2017-07-14T10:59:42.142Z,20.20
2017-07-14T11:02:10.047Z,20.40
2017-07-14T11:04:37.884Z,20.50
2017-07-14T11:07:04.837Z,20.80
2017-07-14T11:09:31.777Z,21.40
2017-07-14T11:11:58.704Z,21.80
2017-07-14T11:14:25.656Z,21.40
2017-07-14T11:16:52.592Z,21.10
2017-07-14T11:19:19.565Z,21.10
2017-07-14T11:21:47.276Z,21.70
2017-07-14T11:24:14.200Z,21.60
2017-07-14T11:26:41.156Z,21.70
2017-07-14T11:29:08.093Z,21.90
2017-07-14T11:31:35.041Z,21.90
2017-07-14T11:34:02.017Z,22.10
2017-07-14T11:36:28.945Z,22.30
2017-07-14T11:38:55.928Z,21.30
2017-07-14T11:41:22.887Z,20.90
2017-07-14T11:43:49.841Z,21.30
2017-07-14T11:46:16.843Z,21.90
2017-07-14T11:48:43.780Z,22.40
2017-07-14T11:51:10.741Z,22.10
2017-07-14T11:53:37.691Z,22.20
2017-07-14T11:56:08.350Z,22.30
2017-07-14T11:58:35.306Z,21.70
2017-07-14T12:01:02.270Z,21.50
2017-07-14T12:03:30.139Z,21.60
2017-07-14T12:05:57.071Z,21.70
2017-07-14T12:08:26.011Z,21.20
2017-07-14T12:10:52.971Z,21.40
2017-07-14T12:13:19.951Z,21.90
2017-07-14T12:15:51.810Z,22.40
2017-07-14T12:18:18.781Z,22.80
2017-07-14T12:20:45.733Z,22.00
2017-07-14T12:23:12.672Z,21.70
2017-07-14T12:25:39.629Z,22.30
2017-07-14T12:28:06.559Z,22.50
2017-07-14T12:30:33.512Z,22.50
2017-07-14T12:33:00.475Z,22.40
2017-07-14T12:35:27.449Z,22.30
2017-07-14T12:37:54.381Z,21.80
2017-07-14T12:40:24.661Z,21.10
2017-07-14T12:42:51.606Z,20.90
2017-07-14T12:45:18.605Z,20.90
2017-07-14T12:47:45.541Z,21.10
2017-07-14T12:50:12.489Z,21.90
2017-07-14T12:52:39.481Z,22.40
2017-07-14T12:55:06.455Z,22.90
2017-07-14T12:57:34.401Z,23.10
2017-07-14T13:00:01.331Z,23.00
2017-07-14T13:02:28.309Z,23.10
2017-07-14T13:04:56.058Z,23.70
2017-07-14T13:07:22.988Z,23.70
2017-07-14T13:09:49.916Z,23.60
2017-07-14T13:12:16.897Z,23.50
2017-07-14T13:14:43.841Z,23.40
2017-07-14T13:17:11.789Z,23.50
2017-07-14T13:19:38.741Z,23.40
2017-07-14T13:22:05.680Z,23.90
2017-07-14T13:24:32.641Z,24.00
2017-07-14T13:27:00.505Z,24.00
2017-07-14T13:29:29.477Z,23.80
2017-07-14T13:31:57.321Z,23.60
2017-07-14T13:34:24.346Z,25.40
2017-07-14T13:36:51.344Z,29.30
2017-07-14T13:39:18.330Z,29.80
2017-07-14T13:41:46.947Z,32.30
2017-07-14T13:44:15.860Z,32.20
2017-07-14T13:46:42.802Z,33.50
2017-07-14T13:49:09.767Z,31.50
2017-07-14T13:51:36.717Z,31.70
2017-07-14T13:54:03.657Z,29.90
2017-07-14T13:56:31.749Z,32.20
2017-07-14T13:58:58.685Z,32.20
2017-07-14T14:01:26.416Z,32.40
2017-07-14T14:03:53.385Z,32.40
2017-07-14T14:06:20.321Z,32.50
2017-07-14T14:08:47.305Z,31.50
2017-07-14T14:11:14.265Z,30.80
2017-07-14T14:13:41.247Z,32.50
2017-07-14T14:16:09.221Z,33.70
2017-07-14T14:18:36.170Z,34.50
2017-07-14T14:21:03.117Z,33.40
2017-07-14T14:23:30.055Z,31.00
2017-07-14T14:25:57.044Z,26.30
2017-07-14T14:28:25.963Z,29.00
2017-07-14T14:30:52.898Z,27.50
2017-07-14T14:33:20.801Z,26.30
2017-07-14T14:35:47.745Z,24.40
2017-07-14T14:38:14.754Z,25.00
2017-07-14T14:40:41.708Z,28.70
2017-07-14T14:43:09.632Z,31.50
2017-07-14T14:45:37.359Z,34.00
2017-07-14T14:48:05.299Z,33.80
2017-07-14T14:50:33.165Z,34.10
2017-07-14T14:53:00.096Z,33.90
2017-07-14T14:55:27.070Z,34.30
2017-07-14T14:57:54.081Z,34.40
2017-07-14T15:00:21.064Z,34.10
2017-07-14T15:02:48.017Z,33.30
2017-07-14T15:05:14.966Z,32.40
2017-07-14T15:07:41.945Z,31.30
2017-07-14T15:10:08.930Z,32.80
2017-07-14T15:12:35.868Z,32.30
2017-07-14T15:15:02.854Z,33.10
2017-07-14T15:17:29.810Z,33.40
2017-07-14T15:19:58.728Z,29.30
2017-07-14T15:22:25.660Z,29.40
2017-07-14T15:24:53.398Z,30.70
2017-07-14T15:27:20.371Z,30.70
2017-07-14T15:29:51.381Z,31.80
2017-07-14T15:32:19.267Z,32.90
2017-07-14T15:34:46.205Z,32.20
2017-07-14T15:37:15.183Z,28.30
2017-07-14T15:39:42.117Z,26.00
2017-07-14T15:42:09.106Z,24.40
2017-07-14T15:44:39.842Z,25.80
2017-07-14T15:47:07.563Z,25.80
2017-07-14T15:49:34.507Z,25.80
2017-07-14T15:52:05.097Z,24.60
2017-07-14T15:54:33.022Z,23.60
2017-07-14T15:57:00.325Z,23.20
2017-07-14T15:59:27.264Z,25.10
2017-07-14T16:01:54.204Z,27.70
2017-07-14T16:04:22.124Z,29.30
2017-07-14T16:06:49.990Z,30.30
2017-07-14T16:09:16.967Z,31.20
2017-07-14T16:11:43.937Z,31.40
2017-07-14T16:14:10.884Z,31.30
2017-07-14T16:16:37.886Z,31.10
2017-07-14T16:19:05.885Z,31.20
2017-07-14T16:21:32.885Z,30.60
2017-07-14T16:23:59.821Z,30.30
2017-07-14T16:26:26.850Z,30.40
2017-07-14T16:28:53.834Z,30.50
2017-07-14T16:31:20.785Z,28.00
2017-07-14T16:33:47.739Z,27.20
2017-07-14T16:36:15.450Z,28.50
2017-07-14T16:38:44.370Z,28.50
2017-07-14T16:41:11.309Z,29.70
2017-07-14T16:43:38.274Z,30.10
2017-07-14T16:46:05.231Z,29.70
2017-07-14T16:48:32.977Z,29.50
2017-07-14T16:50:59.935Z,29.50
2017-07-14T16:53:26.874Z,27.60
2017-07-14T16:55:53.855Z,25.50
2017-07-14T16:58:20.818Z,23.90
2017-07-14T17:00:47.777Z,23.20
2017-07-14T17:03:14.710Z,22.80
2017-07-14T17:05:43.621Z,22.20
2017-07-14T17:08:12.483Z,22.10
2017-07-14T17:10:40.427Z,21.90
2017-07-14T17:13:08.150Z,21.60
2017-07-14T17:15:35.262Z,21.60
2017-07-14T17:18:02.226Z,21.50
2017-07-14T17:20:30.151Z,21.30
2017-07-14T17:22:57.124Z,21.30
2017-07-14T17:25:24.374Z,21.20
2017-07-14T17:27:51.311Z,21.10
2017-07-14T17:30:18.270Z,21.10
2017-07-14T17:32:45.209Z,21.00
2017-07-14T17:35:13.200Z,20.90
2017-07-14T17:37:40.160Z,20.80
2017-07-14T17:40:07.117Z,20.80
2017-07-14T17:42:35.836Z,20.60
2017-07-14T17:45:02.809Z,20.60
2017-07-14T17:47:29.738Z,19.50
2017-07-14T17:49:56.674Z,18.60
2017-07-14T17:52:23.649Z,18.10
2017-07-14T17:54:50.574Z,17.70
2017-07-14T17:57:17.529Z,17.70
2017-07-14T17:59:44.446Z,17.60
2017-07-14T18:02:12.192Z,17.40
2017-07-14T18:04:39.141Z,17.40
2017-07-14T18:07:08.177Z,17.40
2017-07-14T18:09:36.028Z,17.50
2017-07-14T18:12:03.734Z,17.60
2017-07-14T18:14:34.884Z,17.60
2017-07-14T18:17:01.859Z,17.50
2017-07-14T18:19:28.832Z,17.50
2017-07-14T18:21:56.535Z,17.10
2017-07-14T18:24:24.245Z,17.20
2017-07-14T18:26:52.222Z,17.10
2017-07-14T18:29:19.169Z,17.20
2017-07-14T18:31:46.150Z,17.10
2017-07-14T18:34:13.085Z,16.80
2017-07-14T18:36:40.033Z,16.80
2017-07-14T18:39:07.013Z,16.80
2017-07-14T18:41:34.718Z,16.80
2017-07-14T18:44:01.650Z,16.70
2017-07-14T18:46:28.650Z,16.70
2017-07-14T18:48:55.592Z,17.10
2017-07-14T18:51:23.557Z,17.10
2017-07-14T18:53:50.484Z,17.40
2017-07-14T18:56:17.437Z,17.60
2017-07-14T18:58:44.389Z,17.50
2017-07-14T19:01:12.287Z,17.10
2017-07-14T19:03:40.209Z,17.00
2017-07-14T19:06:07.196Z,16.90
2017-07-14T19:08:35.109Z,16.70
2017-07-14T19:11:02.041Z,16.80
2017-07-14T19:13:29.048Z,16.60
2017-07-14T19:15:56.031Z,16.50
2017-07-14T19:18:23.012Z,16.30
2017-07-14T19:20:49.974Z,16.40
2017-07-14T19:23:16.936Z,16.30
2017-07-14T19:25:44.628Z,16.30
2017-07-14T19:28:11.585Z,16.30
2017-07-14T19:30:38.622Z,16.40
2017-07-14T19:33:06.537Z,16.50
2017-07-14T19:35:33.486Z,16.50
2017-07-14T19:38:02.413Z,16.50
2017-07-14T19:40:29.438Z,16.50
2017-07-14T19:42:56.377Z,16.60
2017-07-14T19:45:23.338Z,16.50
2017-07-14T19:47:51.383Z,16.50
2017-07-14T19:50:18.332Z,16.40
2017-07-14T19:52:46.334Z,16.50
2017-07-14T19:55:15.341Z,16.50
2017-07-14T19:57:42.265Z,16.50
2017-07-14T20:00:09.290Z,16.40
2017-07-14T20:02:39.723Z,16.50
2017-07-14T20:05:07.685Z,16.70
2017-07-14T20:07:37.611Z,16.70
2017-07-14T20:10:06.600Z,16.70
2017-07-14T20:12:34.595Z,16.70
2017-07-14T20:15:02.523Z,16.70
2017-07-14T20:17:31.400Z,16.80
2017-07-14T20:19:58.363Z,16.60
2017-07-14T20:22:25.353Z,16.50
2017-07-14T20:24:54.007Z,16.50
2017-07-14T20:27:20.962Z,16.50
2017-07-14T20:29:47.934Z,16.40
2017-07-14T20:32:22.887Z,16.40
2017-07-14T20:34:51.848Z,16.40
2017-07-14T20:37:21.511Z,16.60
2017-07-14T20:39:48.459Z,16.50
2017-07-14T20:42:20.191Z,16.50
2017-07-14T20:44:47.184Z,16.70
2017-07-14T20:47:15.149Z,16.90
2017-07-14T20:49:43.108Z,16.60
2017-07-14T20:52:10.088Z,16.50
2017-07-14T20:54:37.043Z,16.60
2017-07-14T20:57:05.767Z,16.50
2017-07-14T20:59:32.718Z,16.50
2017-07-14T21:01:59.667Z,16.60
2017-07-14T21:04:26.637Z,16.30
2017-07-14T21:06:53.564Z,16.20
2017-07-14T21:09:20.526Z,16.20
2017-07-14T21:11:47.479Z,16.10
2017-07-14T21:14:14.462Z,16.10
2017-07-14T21:16:44.114Z,16.00
2017-07-14T21:19:12.078Z,16.00
2017-07-14T21:21:39.979Z,16.00
2017-07-14T21:24:06.923Z,15.90
2017-07-14T21:26:34.809Z,16.10
2017-07-14T21:29:01.756Z,16.20
2017-07-14T21:31:28.733Z,16.10
2017-07-14T21:33:56.586Z,16.00
2017-07-14T21:36:24.335Z,15.80
2017-07-14T21:38:51.289Z,15.80
2017-07-14T21:41:19.002Z,16.00
2017-07-14T21:43:45.974Z,16.00
2017-07-14T21:46:12.941Z,16.10
2017-07-14T21:48:41.707Z,16.00
2017-07-14T21:51:08.716Z,15.90
2017-07-14T21:53:36.447Z,16.10
2017-07-14T21:56:03.401Z,16.00
2017-07-14T21:58:30.361Z,16.10
2017-07-14T22:00:58.085Z,16.10
2017-07-14T22:03:25.997Z,16.10
2017-07-14T22:05:53.720Z,16.00
2017-07-14T22:08:20.666Z,15.90
2017-07-14T22:10:47.640Z,16.00
2017-07-14T22:13:15.347Z,15.90
2017-07-14T22:15:42.334Z,15.80
2017-07-14T22:18:09.274Z,16.10
2017-07-14T22:20:36.250Z,16.00
2017-07-14T22:23:03.195Z,15.90
2017-07-14T22:25:31.115Z,15.80
2017-07-14T22:27:58.986Z,15.70
2017-07-14T22:30:25.920Z,15.70
2017-07-14T22:32:52.875Z,15.70
2017-07-14T22:35:20.754Z,15.70
2017-07-14T22:37:47.727Z,15.70
2017-07-14T22:40:14.685Z,15.60
2017-07-14T22:42:41.658Z,15.80
2017-07-14T22:45:08.621Z,15.80
2017-07-14T22:47:35.602Z,15.80
2017-07-14T22:50:05.826Z,15.80
2017-07-14T22:52:32.771Z,15.70
2017-07-14T22:54:59.743Z,15.60
2017-07-14T22:57:27.455Z,15.60
2017-07-14T22:59:54.418Z,15.60
2017-07-14T23:02:22.375Z,15.50
2017-07-14T23:04:49.383Z,15.70
2017-07-14T23:07:16.325Z,15.60
2017-07-14T23:09:43.304Z,15.80
2017-07-14T23:12:11.271Z,15.70
2017-07-14T23:14:38.212Z,15.60
2017-07-14T23:17:06.203Z,15.60
2017-07-14T23:19:33.168Z,15.70
2017-07-14T23:22:00.120Z,15.60
2017-07-14T23:24:27.067Z,15.50
2017-07-14T23:26:54.799Z,15.60
2017-07-14T23:29:21.799Z,15.60
2017-07-14T23:31:48.779Z,15.90
2017-07-14T23:34:15.728Z,15.80
2017-07-14T23:36:42.676Z,15.90
2017-07-14T23:39:09.638Z,15.90
2017-07-14T23:41:36.583Z,15.90
2017-07-14T23:44:03.545Z,15.90
2017-07-14T23:46:31.249Z,15.90
2017-07-14T23:48:58.231Z,15.80
2017-07-14T23:51:25.183Z,15.80
2017-07-14T23:53:52.137Z,15.90
2017-07-14T23:56:19.092Z,15.90
2017-07-14T23:58:46.807Z,16.00
